createdAt,value
2016-06-06T08:40:12.042Z,1016.85
2016-06-06T08:41:11.967Z,1016.84
2016-06-06T08:42:14.939Z,1016.87
2016-06-06T08:43:14.895Z,1016.87
2016-06-06T08:44:14.850Z,1016.9
2016-06-06T08:45:14.806Z,1016.91
2016-06-06T08:46:11.746Z,1016.9
2016-06-06T08:47:14.702Z,1016.89
2016-06-06T08:48:14.705Z,1016.88
2016-06-06T08:49:11.630Z,1016.91
2016-06-06T08:50:11.585Z,1016.92
2016-06-06T08:51:11.557Z,1016.88
2016-06-06T08:52:11.497Z,1016.97
2016-06-06T08:53:11.484Z,1016.95
2016-06-06T08:54:11.424Z,1016.94
2016-06-06T08:55:14.412Z,1016.95
2016-06-06T08:56:11.335Z,1016.92
2016-06-06T08:57:14.292Z,1016.95
2016-06-06T08:58:11.247Z,1016.88
2016-06-06T08:59:11.219Z,1016.93
2016-06-06T09:00:11.471Z,1016.91
2016-06-06T09:01:11.131Z,1016.92
2016-06-06T09:02:11.087Z,1016.88
2016-06-06T09:03:11.058Z,1016.89
2016-06-06T09:04:10.998Z,1016.9
2016-06-06T09:05:10.954Z,1016.93
2016-06-06T09:06:10.909Z,1016.9
2016-06-06T09:07:10.865Z,1016.91
2016-06-06T09:08:10.836Z,1016.87
2016-06-06T09:09:10.871Z,1016.84
2016-06-06T09:10:13.748Z,1016.9
2016-06-06T09:11:10.705Z,1016.89
2016-06-06T09:12:10.676Z,1016.9
2016-06-06T09:13:10.631Z,1016.91
2016-06-06T09:14:10.572Z,1016.9
2016-06-06T09:15:10.527Z,1016.93
2016-06-06T09:16:10.483Z,1016.86
2016-06-06T09:17:10.455Z,1016.85
2016-06-06T09:18:10.411Z,1016.89
2016-06-06T09:19:10.366Z,1016.87
2016-06-06T09:20:10.525Z,1016.86
2016-06-06T09:21:10.278Z,1016.9
2016-06-06T09:22:10.234Z,1016.87
2016-06-06T09:23:10.205Z,1016.89
2016-06-06T09:24:10.161Z,1016.88
2016-06-06T09:25:10.101Z,1016.93
2016-06-06T09:26:10.088Z,1016.94
2016-06-06T09:27:13.029Z,1016.92
2016-06-06T09:28:12.985Z,1016.95
2016-06-06T09:29:10.331Z,1016.96
2016-06-06T09:30:10.115Z,1016.97
2016-06-06T09:31:10.273Z,1016.96
2016-06-06T09:32:09.870Z,1016.98
2016-06-06T09:33:09.795Z,1016.96
2016-06-06T09:34:09.751Z,1016.99
2016-06-06T09:35:09.691Z,1016.93
2016-06-06T09:36:09.647Z,1016.94
2016-06-06T09:37:09.603Z,1016.95
2016-06-06T09:38:09.573Z,1016.93
2016-06-06T09:39:09.530Z,1016.94
2016-06-06T09:40:09.486Z,1016.96
2016-06-06T09:41:09.473Z,1016.98
2016-06-06T09:42:09.475Z,1016.98
2016-06-06T09:43:09.369Z,1016.93
2016-06-06T09:44:09.324Z,1016.95
2016-06-06T09:45:09.281Z,1016.93
2016-06-06T09:46:09.236Z,1016.95
2016-06-06T09:47:09.208Z,1016.91
2016-06-06T09:48:09.350Z,1016.87
2016-06-06T09:49:09.650Z,1016.88
2016-06-06T09:50:09.059Z,1016.92
2016-06-06T09:51:09.030Z,1016.87
2016-06-06T09:52:08.986Z,1016.86
2016-06-06T09:53:08.943Z,1016.93
2016-06-06T09:54:08.914Z,1016.91
2016-06-06T09:55:09.073Z,1016.93
2016-06-06T09:56:08.826Z,1016.93
2016-06-06T09:57:08.782Z,1016.97
2016-06-06T09:58:08.737Z,1016.92
2016-06-06T09:59:08.693Z,1016.96
2016-06-06T10:00:08.665Z,1016.86
2016-06-06T10:01:08.621Z,1016.89
2016-06-06T10:02:08.560Z,1016.93
2016-06-06T10:03:08.516Z,1016.89
2016-06-06T10:04:08.487Z,1016.87
2016-06-06T10:05:08.443Z,1016.91
2016-06-06T10:06:08.399Z,1016.94
2016-06-06T10:07:08.371Z,1016.9
2016-06-06T10:08:08.326Z,1016.94
2016-06-06T10:09:08.282Z,1016.9
2016-06-06T10:10:08.238Z,1016.91
2016-06-06T10:11:08.195Z,1016.88
2016-06-06T10:12:08.150Z,1016.94
2016-06-06T10:13:08.121Z,1016.92
2016-06-06T10:14:08.765Z,1016.9
2016-06-06T10:15:08.033Z,1016.95
2016-06-06T10:16:08.005Z,1016.95
2016-06-06T10:17:07.944Z,1016.9
2016-06-06T10:18:07.900Z,1016.9
2016-06-06T10:19:07.872Z,1016.9
2016-06-06T10:20:07.828Z,1016.96
2016-06-06T10:21:07.783Z,1016.92
2016-06-06T10:22:07.739Z,1016.95
2016-06-06T10:23:07.695Z,1016.93
2016-06-06T10:24:07.651Z,1016.9
2016-06-06T10:25:07.638Z,1016.86
2016-06-06T10:26:07.578Z,1016.96
2016-06-06T10:27:07.549Z,1016.89
2016-06-06T10:28:07.489Z,1016.88
2016-06-06T10:29:07.446Z,1016.88
2016-06-06T10:30:07.479Z,1016.96
2016-06-06T10:31:07.373Z,1016.89
2016-06-06T10:32:07.310Z,1016.9
2016-06-06T10:33:07.281Z,1016.89
2016-06-06T10:34:07.237Z,1016.86
2016-06-06T10:35:07.193Z,1016.83
2016-06-06T10:36:07.149Z,1016.78
2016-06-06T10:37:07.104Z,1016.8
2016-06-06T10:38:07.076Z,1016.79
2016-06-06T10:39:07.031Z,1016.86
2016-06-06T10:40:07.004Z,1016.84
2016-06-06T10:41:06.944Z,1016.82
2016-06-06T10:42:06.915Z,1016.8
2016-06-06T10:43:06.855Z,1016.77
2016-06-06T10:44:06.827Z,1016.79
2016-06-06T10:45:06.783Z,1016.8
2016-06-06T10:46:06.739Z,1016.73
2016-06-06T10:47:06.710Z,1016.75
2016-06-06T10:48:06.666Z,1016.75
2016-06-06T10:49:06.622Z,1016.7
2016-06-06T10:50:06.577Z,1016.75
2016-06-06T10:51:06.533Z,1016.75
2016-06-06T10:52:06.489Z,1016.76
2016-06-06T10:53:06.461Z,1016.72
2016-06-06T10:54:06.416Z,1016.72
2016-06-06T10:55:06.372Z,1016.67
2016-06-06T10:56:06.328Z,1016.64
2016-06-06T10:57:06.299Z,1016.65
2016-06-06T10:58:06.255Z,1016.61
2016-06-06T10:59:06.960Z,1016.59
2016-06-06T11:00:09.185Z,1016.6
2016-06-06T11:01:06.154Z,1016.67
2016-06-06T11:02:06.110Z,1016.65
2016-06-06T11:03:06.049Z,1016.62
2016-06-06T11:04:06.006Z,1016.64
2016-06-06T11:05:05.962Z,1016.6
2016-06-06T11:06:05.933Z,1016.58
2016-06-06T11:07:09.077Z,1016.65
2016-06-06T11:08:06.048Z,1016.65
2016-06-06T11:09:08.800Z,1016.65
2016-06-06T11:10:08.959Z,1016.57
2016-06-06T11:11:05.775Z,1016.57
2016-06-06T11:12:05.684Z,1016.57
2016-06-06T11:13:05.701Z,1016.67
2016-06-06T11:14:08.595Z,1016.64
2016-06-06T11:15:05.582Z,1016.6
2016-06-06T11:16:05.506Z,1016.56
2016-06-06T11:17:05.478Z,1016.6
2016-06-06T11:18:05.418Z,1016.62
2016-06-06T11:19:05.390Z,1016.56
2016-06-06T11:20:05.345Z,1016.51
2016-06-06T11:21:05.302Z,1016.55
2016-06-06T11:22:05.273Z,1016.52
2016-06-06T11:23:05.213Z,1016.5
2016-06-06T11:24:05.185Z,1016.57
2016-06-06T11:25:05.141Z,1016.53
2016-06-06T11:26:05.096Z,1016.53
2016-06-06T11:27:05.068Z,1016.54
2016-06-06T11:28:05.024Z,1016.47
2016-06-06T11:29:05.916Z,1016.54
2016-06-06T11:30:05.451Z,1016.53
2016-06-06T11:31:04.907Z,1016.54
2016-06-06T11:32:07.862Z,1016.56
2016-06-06T11:33:04.818Z,1016.57
2016-06-06T11:34:04.774Z,1016.6
2016-06-06T11:35:04.729Z,1016.6
2016-06-06T11:36:04.685Z,1016.59
2016-06-06T11:37:04.657Z,1016.61
2016-06-06T11:38:04.613Z,1016.64
2016-06-06T11:39:04.568Z,1016.5
2016-06-06T11:40:04.524Z,1016.57
2016-06-06T11:41:04.495Z,1016.6
2016-06-06T11:42:04.451Z,1016.62
2016-06-06T11:43:04.423Z,1016.6
2016-06-06T11:44:04.567Z,1016.53
2016-06-06T11:45:04.319Z,1016.44
2016-06-06T11:46:04.290Z,1016.45
2016-06-06T11:47:04.247Z,1016.4
2016-06-06T11:48:04.202Z,1016.38
2016-06-06T11:49:04.158Z,1016.37
2016-06-06T11:50:04.130Z,1016.35
2016-06-06T11:51:04.070Z,1016.43
2016-06-06T11:52:04.041Z,1016.38
2016-06-06T11:53:03.997Z,1016.32
2016-06-06T11:54:03.969Z,1016.3
2016-06-06T11:55:03.924Z,1016.29
2016-06-06T11:56:03.880Z,1016.26
2016-06-06T11:57:06.852Z,1016.26
2016-06-06T11:58:03.791Z,1016.23
2016-06-06T11:59:03.966Z,1016.27
2016-06-06T12:00:03.952Z,1016.24
2016-06-06T12:01:03.691Z,1016.27
2016-06-06T12:02:03.630Z,1016.24
2016-06-06T12:03:03.601Z,1016.32
2016-06-06T12:04:03.558Z,1016.28
2016-06-06T12:05:03.514Z,1016.26
2016-06-06T12:06:03.485Z,1016.21
2016-06-06T12:07:03.456Z,1016.21
2016-06-06T12:08:03.397Z,1016.23
2016-06-06T12:09:03.352Z,1016.14
2016-06-06T12:10:03.308Z,1016.22
2016-06-06T12:11:03.296Z,1016.13
2016-06-06T12:12:03.235Z,1016.14
2016-06-06T12:13:03.192Z,1016.21
2016-06-06T12:14:03.148Z,1016.12
2016-06-06T12:15:03.118Z,1016.13
2016-06-06T12:16:03.090Z,1016.15
2016-06-06T12:17:03.078Z,1016.17
2016-06-06T12:18:03.001Z,1016.17
2016-06-06T12:19:02.958Z,1016.18
2016-06-06T12:20:02.914Z,1016.27
2016-06-06T12:21:02.884Z,1016.22
2016-06-06T12:22:02.841Z,1016.2
2016-06-06T12:23:02.797Z,1016.21
2016-06-06T12:24:02.752Z,1016.25
2016-06-06T12:25:02.708Z,1016.29
2016-06-06T12:26:02.679Z,1016.29
2016-06-06T12:27:02.635Z,1016.29
2016-06-06T12:28:02.591Z,1016.29
2016-06-06T12:29:02.562Z,1016.26
2016-06-06T12:30:03.112Z,1016.26
2016-06-06T12:31:02.474Z,1016.25
2016-06-06T12:32:02.430Z,1016.27
2016-06-06T12:33:02.386Z,1016.23
2016-06-06T12:34:02.357Z,1016.39
2016-06-06T12:35:02.312Z,1016.32
2016-06-06T12:36:02.285Z,1016.32
2016-06-06T12:37:02.240Z,1016.37
2016-06-06T12:38:02.196Z,1016.37
2016-06-06T12:39:02.151Z,1016.41
2016-06-06T12:40:02.107Z,1016.39
2016-06-06T12:41:02.157Z,1016.41
2016-06-06T12:42:02.035Z,1016.42
2016-06-06T12:43:01.990Z,1016.36
2016-06-06T12:44:01.963Z,1016.38
2016-06-06T12:45:02.012Z,1016.38
2016-06-06T12:46:01.920Z,1016.39
2016-06-06T12:47:02.236Z,1016.48
2016-06-06T12:48:01.817Z,1016.52
2016-06-06T12:49:01.867Z,1016.6
2016-06-06T12:50:01.712Z,1016.58
2016-06-06T12:51:01.794Z,1016.59
2016-06-06T12:52:01.640Z,1016.59
2016-06-06T12:53:01.595Z,1016.59
2016-06-06T12:54:01.567Z,1016.62
2016-06-06T12:55:01.523Z,1016.74
2016-06-06T12:56:01.479Z,1016.7
2016-06-06T12:57:01.466Z,1016.68
2016-06-06T12:58:01.390Z,1016.67
2016-06-06T12:59:01.377Z,1016.64
2016-06-06T13:00:01.333Z,1016.67
2016-06-06T13:01:01.274Z,1016.65
2016-06-06T13:02:01.230Z,1016.62
2016-06-06T13:03:01.201Z,1016.68
2016-06-06T13:04:01.157Z,1016.68
2016-06-06T13:05:01.112Z,1016.69
2016-06-06T13:06:04.288Z,1016.65
2016-06-06T13:07:01.040Z,1016.71
2016-06-06T13:08:01.198Z,1016.63
2016-06-06T13:09:01.061Z,1016.68
2016-06-06T13:10:00.923Z,1016.6
2016-06-06T13:11:03.910Z,1016.62
2016-06-06T13:12:00.850Z,1016.63
2016-06-06T13:13:03.821Z,1016.59
2016-06-06T13:14:00.777Z,1016.6
2016-06-06T13:15:01.890Z,1016.65
2016-06-06T13:16:00.689Z,1016.59
2016-06-06T13:17:00.660Z,1016.61
2016-06-06T13:18:00.600Z,1016.58
2016-06-06T13:19:00.572Z,1016.62
2016-06-06T13:20:00.528Z,1016.54
2016-06-06T13:21:00.687Z,1016.58
2016-06-06T13:22:00.455Z,1016.52
2016-06-06T13:23:00.411Z,1016.53
2016-06-06T13:24:00.367Z,1016.62
2016-06-06T13:25:00.322Z,1016.59
2016-06-06T13:26:00.278Z,1016.64
2016-06-06T13:27:00.250Z,1016.68
2016-06-06T13:28:00.221Z,1016.72
2016-06-06T13:29:00.849Z,1016.71
2016-06-06T13:30:00.133Z,1016.74
2016-06-06T13:31:00.088Z,1016.74
2016-06-06T13:32:00.060Z,1016.67
2016-06-06T13:33:00.000Z,1016.71
2016-06-06T13:33:59.971Z,1016.69
2016-06-06T13:34:59.958Z,1016.68
2016-06-06T13:35:59.899Z,1016.68
2016-06-06T13:36:59.902Z,1016.74
2016-06-06T13:37:59.810Z,1016.71
2016-06-06T13:38:59.844Z,1016.87
2016-06-06T13:40:01.144Z,1016.85
2016-06-06T13:40:59.693Z,1016.84
2016-06-06T13:42:02.712Z,1016.83
2016-06-06T13:42:59.667Z,1016.84
2016-06-06T13:43:59.780Z,1016.79
2016-06-06T13:44:59.549Z,1016.8
2016-06-06T13:45:59.488Z,1016.81
2016-06-06T13:46:59.459Z,1016.79
2016-06-06T13:47:59.416Z,1016.79
2016-06-06T13:48:59.371Z,1016.79
2016-06-06T13:49:59.342Z,1016.78
2016-06-06T13:50:59.298Z,1016.81
2016-06-06T13:51:59.239Z,1016.8
2016-06-06T13:52:59.398Z,1016.8
2016-06-06T13:53:59.166Z,1016.79
2016-06-06T13:54:59.122Z,1016.82
2016-06-06T13:55:59.078Z,1016.81
2016-06-06T13:56:59.049Z,1016.78
2016-06-06T13:57:59.005Z,1016.77
2016-06-06T13:58:59.351Z,1016.76
2016-06-06T13:59:59.416Z,1016.76
2016-06-06T14:00:58.888Z,1016.75
2016-06-06T14:01:58.844Z,1016.72
2016-06-06T14:02:58.800Z,1016.69
2016-06-06T14:03:58.755Z,1016.66
2016-06-06T14:04:58.727Z,1016.66
2016-06-06T14:05:58.683Z,1016.65
2016-06-06T14:06:58.655Z,1016.63
2016-06-06T14:07:58.594Z,1016.6
2016-06-06T14:08:58.566Z,1016.61
2016-06-06T14:10:01.521Z,1016.57
2016-06-06T14:10:58.477Z,1016.58
2016-06-06T14:11:58.433Z,1016.58
2016-06-06T14:12:58.405Z,1016.59
2016-06-06T14:13:58.345Z,1016.56
2016-06-06T14:14:58.316Z,1016.57
2016-06-06T14:15:58.460Z,1016.5
2016-06-06T14:16:58.229Z,1016.5
2016-06-06T14:17:58.184Z,1016.45
2016-06-06T14:18:58.139Z,1016.45
2016-06-06T14:19:58.111Z,1016.42
2016-06-06T14:20:58.207Z,1016.42
2016-06-06T14:21:58.022Z,1016.37
2016-06-06T14:22:57.978Z,1016.42
2016-06-06T14:23:57.950Z,1016.38
2016-06-06T14:24:57.937Z,1016.37
2016-06-06T14:25:57.862Z,1016.37
2016-06-06T14:26:57.817Z,1016.37
2016-06-06T14:27:57.772Z,1016.34
2016-06-06T14:28:57.745Z,1016.34
2016-06-06T14:29:57.700Z,1016.36
2016-06-06T14:30:57.655Z,1016.39
2016-06-06T14:31:57.612Z,1016.36
2016-06-06T14:32:57.568Z,1016.36
2016-06-06T14:33:57.539Z,1016.38
2016-06-06T14:34:57.510Z,1016.38
2016-06-06T14:35:57.654Z,1016.36
2016-06-06T14:36:57.407Z,1016.37
2016-06-06T14:37:57.378Z,1016.31
2016-06-06T14:38:57.334Z,1016.3
2016-06-06T14:39:57.494Z,1016.33
2016-06-06T14:40:57.261Z,1016.31
2016-06-06T14:41:57.232Z,1016.33
2016-06-06T14:42:57.173Z,1016.3
2016-06-06T14:43:57.129Z,1016.31
2016-06-06T14:44:57.585Z,1016.25
2016-06-06T14:45:57.040Z,1016.27
2016-06-06T14:46:57.012Z,1016.31
2016-06-06T14:47:56.983Z,1016.26
2016-06-06T14:48:56.924Z,1016.23
2016-06-06T14:49:56.879Z,1016.23
2016-06-06T14:50:56.850Z,1016.22
2016-06-06T14:51:56.806Z,1016.17
2016-06-06T14:52:56.762Z,1016.19
2016-06-06T14:53:57.014Z,1016.16
2016-06-06T14:54:56.689Z,1016.17
2016-06-06T14:55:56.645Z,1016.12
2016-06-06T14:56:56.601Z,1016.17
2016-06-06T14:57:56.572Z,1016.14
2016-06-06T14:58:56.576Z,1016.12
2016-06-06T14:59:56.484Z,1016.07
2016-06-06T15:00:56.456Z,1016.15
2016-06-06T15:01:56.614Z,1016.14
2016-06-06T15:02:56.367Z,1016.14
2016-06-06T15:03:56.323Z,1016.14
2016-06-06T15:04:56.294Z,1016.18
2016-06-06T15:05:56.250Z,1016.29
2016-06-06T15:06:56.206Z,1016.29
2016-06-06T15:07:56.162Z,1016.34
2016-06-06T15:08:56.134Z,1016.31
2016-06-06T15:09:56.089Z,1016.35
2016-06-06T15:10:59.060Z,1016.26
2016-06-06T15:11:56.001Z,1016.24
2016-06-06T15:12:58.972Z,1016.22
2016-06-06T15:13:55.943Z,1016.19
2016-06-06T15:14:55.899Z,1016.15
2016-06-06T15:15:55.855Z,1016.13
2016-06-06T15:16:59.029Z,1016.19
2016-06-06T15:17:58.782Z,1016.11
2016-06-06T15:18:55.738Z,1016.2
2016-06-06T15:19:55.710Z,1016.19
2016-06-06T15:20:55.666Z,1016.19
2016-06-06T15:21:55.621Z,1016.11
2016-06-06T15:22:55.593Z,1016.14
2016-06-06T15:23:58.565Z,1016.11
2016-06-06T15:24:55.505Z,1016.17
2016-06-06T15:25:55.476Z,1016.06
2016-06-06T15:26:55.431Z,1016.11
2016-06-06T15:27:55.403Z,1016.1
2016-06-06T15:28:55.375Z,1016.05
2016-06-06T15:29:55.331Z,1016.05
2016-06-06T15:30:55.584Z,1016.07
2016-06-06T15:31:55.258Z,1016.07
2016-06-06T15:32:55.230Z,1016.01
2016-06-06T15:33:55.185Z,1016.02
2016-06-06T15:34:55.157Z,1015.98
2016-06-06T15:35:55.113Z,1015.99
2016-06-06T15:36:55.100Z,1015.98
2016-06-06T15:37:55.039Z,1015.99
2016-06-06T15:38:55.011Z,1016.01
2016-06-06T15:39:54.983Z,1016
2016-06-06T15:40:54.938Z,1016.05
2016-06-06T15:41:54.910Z,1015.99
2016-06-06T15:42:54.881Z,1016.02
2016-06-06T15:43:57.837Z,1016.01
2016-06-06T15:44:58.293Z,1016.04
2016-06-06T15:45:54.765Z,1016.08
2016-06-06T15:46:54.736Z,1016.06
2016-06-06T15:47:54.691Z,1016.04
2016-06-06T15:48:54.648Z,1016.08
2016-06-06T15:49:54.619Z,1016.09
2016-06-06T15:50:54.575Z,1016.01
2016-06-06T15:51:54.546Z,1016.04
2016-06-06T15:52:57.534Z,1016.01
2016-06-06T15:53:54.473Z,1015.99
2016-06-06T15:54:54.445Z,1015.92
2016-06-06T15:55:55.245Z,1015.91
2016-06-06T15:56:54.372Z,1015.95
2016-06-06T15:57:54.328Z,1015.88
2016-06-06T15:58:54.315Z,1015.93
2016-06-06T15:59:57.256Z,1015.9
2016-06-06T16:00:54.226Z,1015.96
2016-06-06T16:01:54.183Z,1015.99
2016-06-06T16:02:57.170Z,1015.96
2016-06-06T16:03:54.109Z,1016.09
2016-06-06T16:04:54.081Z,1016.09
2016-06-06T16:05:54.444Z,1016.08
2016-06-06T16:06:54.008Z,1016.08
2016-06-06T16:07:53.964Z,1016.14
2016-06-06T16:08:54.139Z,1016.08
2016-06-06T16:09:54.095Z,1016.11
2016-06-06T16:10:53.863Z,1016.05
2016-06-06T16:11:55.069Z,1016.04
2016-06-06T16:12:53.775Z,1016.05
2016-06-06T16:13:53.747Z,1016.04
2016-06-06T16:14:53.702Z,1016.01
2016-06-06T16:15:53.658Z,1015.99
2016-06-06T16:16:53.629Z,1016.02
2016-06-06T16:17:53.585Z,1016.06
2016-06-06T16:18:53.541Z,1015.99
2016-06-06T16:19:56.528Z,1016.01
2016-06-06T16:20:53.468Z,1015.97
2016-06-06T16:21:53.440Z,1015.97
2016-06-06T16:22:53.396Z,1016.01
2016-06-06T16:23:53.351Z,1015.99
2016-06-06T16:24:53.323Z,1016.03
2016-06-06T16:25:53.279Z,1016.01
2016-06-06T16:26:53.250Z,1016.03
2016-06-06T16:27:53.190Z,1016.01
2016-06-06T16:28:53.177Z,1015.99
2016-06-06T16:29:53.695Z,1016.07
2016-06-06T16:30:53.307Z,1016.06
2016-06-06T16:31:53.045Z,1016.04
2016-06-06T16:32:56.016Z,1016.04
2016-06-06T16:33:52.987Z,1016.03
2016-06-06T16:34:52.928Z,1016.04
2016-06-06T16:35:52.900Z,1016.02
2016-06-06T16:36:52.839Z,1016.03
2016-06-06T16:37:52.811Z,1016.02
2016-06-06T16:38:52.767Z,1016.04
2016-06-06T16:39:52.925Z,1016.08
2016-06-06T16:40:52.678Z,1016.13
2016-06-06T16:41:52.634Z,1016.09
2016-06-06T16:42:55.626Z,1016.13
2016-06-06T16:43:52.571Z,1016.18
2016-06-06T16:44:55.750Z,1016.16
2016-06-06T16:45:55.539Z,1016.16
2016-06-06T16:46:52.469Z,1016.14
2016-06-06T16:47:52.443Z,1016.12
2016-06-06T16:48:52.384Z,1016.14
2016-06-06T16:49:52.356Z,1016.15
2016-06-06T16:50:52.314Z,1016.17
2016-06-06T16:51:52.271Z,1016.12
2016-06-06T16:52:52.244Z,1016.1
2016-06-06T16:53:52.200Z,1016.11
2016-06-06T16:54:52.157Z,1016.09
2016-06-06T16:55:52.114Z,1016.11
2016-06-06T16:56:52.086Z,1016.11
2016-06-06T16:57:52.042Z,1016.17
2016-06-06T16:58:51.998Z,1016.1
2016-06-06T16:59:52.252Z,1016.1
2016-06-06T17:00:52.130Z,1016.08
2016-06-06T17:01:51.883Z,1016.09
2016-06-06T17:02:51.854Z,1016.07
2016-06-06T17:03:51.809Z,1016.04
2016-06-06T17:04:51.766Z,1016.05
2016-06-06T17:05:51.924Z,1016.03
2016-06-06T17:06:51.678Z,1016.04
2016-06-06T17:07:51.633Z,1016
2016-06-06T17:08:54.605Z,1016.04
2016-06-06T17:09:51.576Z,1016.02
2016-06-06T17:10:54.532Z,1016.01
2016-06-06T17:11:51.488Z,1016.03
2016-06-06T17:12:51.459Z,1016.06
2016-06-06T17:13:51.399Z,1016.06
2016-06-06T17:14:51.355Z,1016.09
2016-06-06T17:15:51.342Z,1016.12
2016-06-06T17:16:51.282Z,1016.1
2016-06-06T17:17:51.238Z,1016.14
2016-06-06T17:18:51.210Z,1016.11
2016-06-06T17:19:51.165Z,1016.17
2016-06-06T17:20:51.309Z,1016.16
2016-06-06T17:21:51.077Z,1016.17
2016-06-06T17:22:51.049Z,1016.16
2016-06-06T17:23:51.207Z,1016.18
2016-06-06T17:24:50.960Z,1016.17
2016-06-06T17:25:50.915Z,1016.19
2016-06-06T17:26:50.887Z,1016.19
2016-06-06T17:27:50.843Z,1016.23
2016-06-06T17:28:50.814Z,1016.24
2016-06-06T17:29:50.755Z,1016.27
2016-06-06T17:30:50.711Z,1016.27
2016-06-06T17:31:50.666Z,1016.26
2016-06-06T17:32:50.638Z,1016.24
2016-06-06T17:33:50.594Z,1016.23
2016-06-06T17:34:50.564Z,1016.3
2016-06-06T17:35:50.520Z,1016.25
2016-06-06T17:36:50.477Z,1016.26
2016-06-06T17:37:50.432Z,1016.23
2016-06-06T17:38:50.389Z,1016.22
2016-06-06T17:39:50.360Z,1016.22
2016-06-06T17:40:50.330Z,1016.26
2016-06-06T17:41:50.272Z,1016.26
2016-06-06T17:42:50.227Z,1016.24
2016-06-06T17:43:50.199Z,1016.24
2016-06-06T17:44:50.232Z,1016.25
2016-06-06T17:45:50.111Z,1016.23
2016-06-06T17:46:50.082Z,1016.22
2016-06-06T17:47:50.037Z,1016.24
2016-06-06T17:48:49.994Z,1016.25
2016-06-06T17:49:52.949Z,1016.26
2016-06-06T17:50:49.920Z,1016.25
2016-06-06T17:51:49.876Z,1016.29
2016-06-06T17:52:49.832Z,1016.28
2016-06-06T17:53:49.788Z,1016.3
2016-06-06T17:54:49.743Z,1016.29
2016-06-06T17:55:49.715Z,1016.31
2016-06-06T17:56:49.671Z,1016.3
2016-06-06T17:57:49.829Z,1016.33
2016-06-06T17:58:49.598Z,1016.33
2016-06-06T17:59:49.554Z,1016.34
2016-06-06T18:00:49.510Z,1016.3
2016-06-06T18:01:49.465Z,1016.34
2016-06-06T18:02:49.422Z,1016.37
2016-06-06T18:03:49.393Z,1016.37
2016-06-06T18:04:49.364Z,1016.33
2016-06-06T18:05:49.305Z,1016.32
2016-06-06T18:06:49.261Z,1016.3
2016-06-06T18:07:49.216Z,1016.28
2016-06-06T18:08:49.188Z,1016.3
2016-06-06T18:09:49.144Z,1016.29
2016-06-06T18:10:52.114Z,1016.31
2016-06-06T18:11:49.055Z,1016.27
2016-06-06T18:12:49.027Z,1016.3
2016-06-06T18:13:48.983Z,1016.31
2016-06-06T18:14:48.954Z,1016.33
2016-06-06T18:15:48.910Z,1016.27
2016-06-06T18:16:48.866Z,1016.32
2016-06-06T18:17:48.821Z,1016.26
2016-06-06T18:18:48.777Z,1016.3
2016-06-06T18:19:48.749Z,1016.25
2016-06-06T18:20:48.705Z,1016.32
2016-06-06T18:21:48.644Z,1016.33
2016-06-06T18:22:48.616Z,1016.33
2016-06-06T18:23:48.571Z,1016.33
2016-06-06T18:24:48.528Z,1016.33
2016-06-06T18:25:48.483Z,1016.31
2016-06-06T18:26:48.439Z,1016.35
2016-06-06T18:27:48.410Z,1016.4
2016-06-06T18:28:51.367Z,1016.4
2016-06-06T18:29:48.337Z,1016.4
2016-06-06T18:30:48.591Z,1016.4
2016-06-06T18:31:51.453Z,1016.44
2016-06-06T18:32:48.205Z,1016.45
2016-06-06T18:33:48.161Z,1016.43
2016-06-06T18:34:48.117Z,1016.45
2016-06-06T18:35:48.089Z,1016.46
2016-06-06T18:36:48.044Z,1016.46
2016-06-06T18:37:48.000Z,1016.43
2016-06-06T18:38:47.956Z,1016.48
2016-06-06T18:39:47.911Z,1016.46
2016-06-06T18:40:47.867Z,1016.49
2016-06-06T18:41:47.823Z,1016.45
2016-06-06T18:42:50.794Z,1016.44
2016-06-06T18:43:47.751Z,1016.45
2016-06-06T18:44:51.566Z,1016.42
2016-06-06T18:45:47.663Z,1016.43
2016-06-06T18:46:47.633Z,1016.46
2016-06-06T18:47:47.589Z,1016.43
2016-06-06T18:48:47.546Z,1016.45
2016-06-06T18:49:47.501Z,1016.51
2016-06-06T18:50:47.457Z,1016.45
2016-06-06T18:51:47.429Z,1016.48
2016-06-06T18:52:47.385Z,1016.47
2016-06-06T18:53:47.340Z,1016.5
2016-06-06T18:54:47.295Z,1016.48
2016-06-06T18:55:47.346Z,1016.48
2016-06-06T18:56:47.207Z,1016.48
2016-06-06T18:57:47.179Z,1016.48
2016-06-06T18:58:47.135Z,1016.5
2016-06-06T18:59:47.090Z,1016.46
2016-06-06T19:00:47.217Z,1016.47
2016-06-06T19:01:47.001Z,1016.5
2016-06-06T19:02:46.973Z,1016.49
2016-06-06T19:03:46.929Z,1016.54
2016-06-06T19:04:46.900Z,1016.53
2016-06-06T19:05:46.856Z,1016.54
2016-06-06T19:06:46.812Z,1016.55
2016-06-06T19:07:46.768Z,1016.55
2016-06-06T19:08:46.739Z,1016.53
2016-06-06T19:09:46.883Z,1016.49
2016-06-06T19:10:46.636Z,1016.51
2016-06-06T19:11:46.998Z,1016.54
2016-06-06T19:12:49.563Z,1016.52
2016-06-06T19:13:49.534Z,1016.58
2016-06-06T19:14:46.490Z,1016.59
2016-06-06T19:15:49.431Z,1016.56
2016-06-06T19:16:46.589Z,1016.54
2016-06-06T19:17:49.827Z,1016.58
2016-06-06T19:18:46.313Z,1016.56
2016-06-06T19:19:46.269Z,1016.58
2016-06-06T19:20:46.225Z,1016.56
2016-06-06T19:21:46.181Z,1016.59
2016-06-06T19:22:49.168Z,1016.6
2016-06-06T19:23:46.108Z,1016.62
2016-06-06T19:24:49.079Z,1016.59
2016-06-06T19:25:46.020Z,1016.59
2016-06-06T19:26:45.991Z,1016.58
2016-06-06T19:27:45.946Z,1016.63
2016-06-06T19:28:45.903Z,1016.67
2016-06-06T19:29:45.859Z,1016.65
2016-06-06T19:30:48.830Z,1016.68
2016-06-06T19:31:45.770Z,1016.65
2016-06-06T19:32:45.726Z,1016.64
2016-06-06T19:33:48.698Z,1016.66
2016-06-06T19:34:45.653Z,1016.69
2016-06-06T19:35:45.875Z,1016.68
2016-06-06T19:36:45.768Z,1016.7
2016-06-06T19:37:45.537Z,1016.68
2016-06-06T19:38:45.555Z,1016.69
2016-06-06T19:39:45.526Z,1016.7
2016-06-06T19:40:45.639Z,1016.7
2016-06-06T19:41:45.406Z,1016.7
2016-06-06T19:42:45.378Z,1016.7
2016-06-06T19:43:45.272Z,1016.73
2016-06-06T19:44:45.227Z,1016.72
2016-06-06T19:45:45.199Z,1016.71
2016-06-06T19:46:45.155Z,1016.75
2016-06-06T19:47:45.110Z,1016.78
2016-06-06T19:48:45.066Z,1016.8
2016-06-06T19:49:45.021Z,1016.84
2016-06-06T19:50:44.993Z,1016.82
2016-06-06T19:51:44.933Z,1016.9
2016-06-06T19:52:44.889Z,1016.85
2016-06-06T19:53:44.860Z,1016.88
2016-06-06T19:54:44.816Z,1016.86
2016-06-06T19:55:45.179Z,1016.84
2016-06-06T19:56:44.729Z,1016.86
2016-06-06T19:57:44.684Z,1016.85
2016-06-06T19:58:44.937Z,1016.85
2016-06-06T19:59:47.642Z,1016.85
2016-06-06T20:00:44.582Z,1016.89
2016-06-06T20:01:44.617Z,1016.87
2016-06-06T20:02:44.572Z,1016.87
2016-06-06T20:03:44.528Z,1016.83
2016-06-06T20:04:44.391Z,1016.94
2016-06-06T20:05:44.377Z,1016.9
2016-06-06T20:06:44.302Z,1016.9
2016-06-06T20:07:44.492Z,1016.94
2016-06-06T20:08:44.229Z,1016.94
2016-06-06T20:09:44.278Z,1016.93
2016-06-06T20:10:44.281Z,1016.95
2016-06-06T20:11:44.112Z,1016.96
2016-06-06T20:12:44.130Z,1016.97
2016-06-06T20:13:44.024Z,1016.99
2016-06-06T20:14:43.980Z,1016.98
2016-06-06T20:15:44.029Z,1016.97
2016-06-06T20:16:43.907Z,1016.94
2016-06-06T20:17:43.863Z,1016.95
2016-06-06T20:18:43.819Z,1016.96
2016-06-06T20:19:46.790Z,1016.97
2016-06-06T20:20:43.731Z,1016.98
2016-06-06T20:21:43.702Z,1016.99
2016-06-06T20:22:46.641Z,1016.96
2016-06-06T20:23:43.660Z,1016.98
2016-06-06T20:24:43.600Z,1017
2016-06-06T20:25:43.634Z,1016.98
2016-06-06T20:26:43.480Z,1016.99
2016-06-06T20:27:43.437Z,1016.99
2016-06-06T20:28:43.408Z,1016.99
2016-06-06T20:29:46.363Z,1016.94
2016-06-06T20:30:43.320Z,1016.94
2016-06-06T20:31:43.276Z,1016.94
2016-06-06T20:32:43.232Z,1016.96
2016-06-06T20:33:43.188Z,1016.93
2016-06-06T20:34:46.206Z,1016.93
2016-06-06T20:35:43.098Z,1016.96
2016-06-06T20:36:46.070Z,1016.93
2016-06-06T20:37:43.023Z,1016.93
2016-06-06T20:38:42.964Z,1016.93
2016-06-06T20:39:43.075Z,1016.91
2016-06-06T20:40:45.909Z,1016.92
2016-06-06T20:41:45.850Z,1016.94
2016-06-06T20:42:42.818Z,1016.94
2016-06-06T20:43:42.758Z,1016.91
2016-06-06T20:44:45.732Z,1016.95
2016-06-06T20:45:42.685Z,1016.93
2016-06-06T20:46:42.641Z,1016.93
2016-06-06T20:47:42.597Z,1016.92